You are listening to:
EHGG Approach - Groningen, Netherlands

EHGG 012155Z AUTO 05006KT 8000 SCT007 BKN008 OVC011 06/05 Q1021

If stream doesn't start automatically press the play button
If stream stops then reload player then press play